Time;durP1;ratioP1;P1;durP2;ratioP2;P2;SDS_P1;SDS_P2;PMS_P1;PMS_P2;Temp;Humidity;BMP_temperature;BMP_pressure;BME280_temperature;BME280_humidity;BME280_pressure;Samples;Min_cycle;Max_cycle;Signal;HPM_P1;HPM_P2
2021/07/30 00:01:47;;;;;;;11.48;7.47;;;;;;;15.11;77.42;100588.00;4980115;28;20061;-83
2021/07/30 00:04:13;;;;;;;14.93;7.63;;;;;;;15.05;77.76;100587.97;4983043;28;20045;-87
2021/07/30 00:06:38;;;;;;;17.27;7.68;;;;;;;14.98;78.09;100589.78;4981739;28;20100;-83
2021/07/30 00:09:04;;;;;;;17.00;7.38;;;;;;;14.83;78.75;100579.94;4986272;28;20061;-83
2021/07/30 00:11:29;;;;;;;16.88;7.18;;;;;;;14.74;79.01;100585.69;4981341;28;20047;-84
2021/07/30 00:13:55;;;;;;;12.57;7.00;;;;;;;14.70;79.23;100582.53;4980118;28;20059;-88
2021/07/30 00:16:20;;;;;;;14.02;7.68;;;;;;;14.63;79.23;100587.06;4975382;28;20213;-84
2021/07/30 00:18:46;;;;;;;10.00;6.68;;;;;;;14.51;80.14;100589.41;4981199;28;20054;-84
2021/07/30 00:21:13;;;;;;;11.98;7.25;;;;;;;14.39;80.92;100585.59;4983161;28;20133;-83
2021/07/30 00:23:40;;;;;;;12.93;7.30;;;;;;;14.29;81.18;100582.38;4964443;28;20046;-84
2021/07/30 00:26:05;;;;;;;14.45;7.93;;;;;;;14.25;81.72;100583.78;4983384;28;20104;-87
2021/07/30 00:28:30;;;;;;;14.85;8.15;;;;;;;14.15;81.79;100590.31;4982038;28;20057;-83
2021/07/30 00:30:56;;;;;;;13.63;8.05;;;;;;;14.17;81.61;100582.88;4980397;28;20061;-85
2021/07/30 00:33:21;;;;;;;14.68;8.50;;;;;;;14.09;81.95;100582.16;4982620;28;20038;-83
2021/07/30 00:35:46;;;;;;;15.25;8.50;;;;;;;14.05;82.14;100584.44;4979053;28;20424;-86
2021/07/30 00:38:12;;;;;;;14.00;8.50;;;;;;;14.00;82.46;100584.16;4981721;28;20185;-87
2021/07/30 00:40:37;;;;;;;11.73;7.75;;;;;;;13.90;82.84;100579.09;4980642;28;20065;-83
2021/07/30 00:43:04;;;;;;;13.50;8.07;;;;;;;13.81;83.22;100584.78;4980517;28;20058;-85
2021/07/30 00:45:31;;;;;;;12.73;8.52;;;;;;;13.76;83.73;100585.38;4983167;28;20046;-82
2021/07/30 00:47:57;;;;;;;15.82;8.50;;;;;;;13.68;84.01;100575.50;4979693;28;20401;-88
2021/07/30 00:50:23;;;;;;;12.63;8.20;;;;;;;13.63;84.32;100583.34;4983983;28;20551;-82
2021/07/30 00:52:51;;;;;;;14.45;8.27;;;;;;;13.59;84.55;100586.63;4985424;28;20104;-83
2021/07/30 00:55:17;;;;;;;14.73;8.15;;;;;;;13.53;84.37;100588.19;4986141;28;20469;-84
2021/07/30 00:57:44;;;;;;;14.75;8.55;;;;;;;13.45;85.02;100580.22;4985687;28;20052;-86
2021/07/30 01:00:10;;;;;;;13.55;8.68;;;;;;;13.40;85.41;100580.75;4981532;28;20046;-84
2021/07/30 01:02:37;;;;;;;13.52;8.68;;;;;;;13.38;85.41;100581.97;4982578;28;20038;-84
2021/07/30 01:05:03;;;;;;;15.13;9.20;;;;;;;13.35;85.52;100580.53;4962476;28;20053;-82
2021/07/30 01:07:29;;;;;;;11.90;8.45;;;;;;;13.29;85.73;100575.84;4980479;28;20141;-85
2021/07/30 01:09:54;;;;;;;13.25;8.13;;;;;;;13.31;85.37;100584.59;4982056;28;20180;-83
2021/07/30 01:12:20;;;;;;;15.65;9.38;;;;;;;13.29;85.39;100582.09;4979530;28;20053;-84
2021/07/30 01:14:45;;;;;;;13.65;8.93;;;;;;;13.34;85.12;100578.00;4979627;28;20038;-82
2021/07/30 01:17:11;;;;;;;13.73;9.23;;;;;;;13.33;85.06;100577.16;4982511;28;20452;-87
2021/07/30 01:19:36;;;;;;;14.73;8.85;;;;;;;13.32;84.82;100565.56;4981028;28;20413;-83
2021/07/30 01:22:29;;;;;;;18.40;8.60;;;;;;;13.32;84.72;100570.09;4979827;28;20496;-84
2021/07/30 01:24:55;;;;;;;17.30;9.35;;;;;;;13.34;84.49;100569.91;4978114;28;20539;-84
2021/07/30 01:27:21;;;;;;;13.93;8.93;;;;;;;13.36;84.31;100565.19;4979078;28;20133;-87
2021/07/30 01:29:47;;;;;;;17.02;8.85;;;;;;;13.38;84.01;100568.50;4980353;28;20116;-84
2021/07/30 01:32:13;;;;;;;15.15;7.85;;;;;;;13.34;84.23;100575.31;4977226;28;20050;-88
2021/07/30 01:34:39;;;;;;;15.38;8.60;;;;;;;13.39;83.90;100568.31;4980666;28;20042;-82
2021/07/30 01:37:04;;;;;;;11.50;8.30;;;;;;;13.38;83.89;100571.19;4980281;28;20106;-83
2021/07/30 01:39:30;;;;;;;13.40;8.93;;;;;;;13.40;83.78;100575.38;4977911;28;20061;-85
2021/07/30 01:41:55;;;;;;;14.90;8.77;;;;;;;13.37;83.74;100567.66;4979809;28;20431;-84
2021/07/30 01:44:21;;;;;;;14.85;8.32;;;;;;;13.37;83.82;100573.06;4977870;28;20050;-83
2021/07/30 01:46:47;;;;;;;12.45;9.02;;;;;;;13.32;84.08;100570.94;4980562;28;20050;-85
2021/07/30 01:49:13;;;;;;;15.00;8.65;;;;;;;13.26;84.11;100570.84;4980010;28;20507;-83
2021/07/30 01:51:39;;;;;;;14.52;9.15;;;;;;;13.25;84.52;100567.31;4978953;28;20502;-84
2021/07/30 01:54:06;;;;;;;14.65;9.40;;;;;;;13.24;84.27;100562.94;4979425;28;20057;-84
2021/07/30 01:56:32;;;;;;;16.55;9.70;;;;;;;13.19;84.51;100562.63;4978420;28;20054;-84
2021/07/30 01:58:59;;;;;;;15.10;9.23;;;;;;;13.21;84.40;100557.91;4979700;28;20570;-83
2021/07/30 02:01:24;;;;;;;14.63;9.50;;;;;;;13.14;84.75;100556.97;4975556;28;20049;-86
2021/07/30 02:03:49;;;;;;;13.82;9.00;;;;;;;13.15;84.69;100557.81;4979788;28;20047;-84
2021/07/30 02:06:16;;;;;;;13.23;9.20;;;;;;;13.10;84.91;100553.81;4977535;28;20141;-89
2021/07/30 02:08:43;;;;;;;13.50;9.57;;;;;;;13.08;85.16;100557.72;4976472;28;20444;-84
2021/07/30 02:11:12;;;;;;;14.98;9.35;;;;;;;13.08;85.14;100553.16;4980075;28;20053;-84
2021/07/30 02:16:21;;;;;;;15.13;9.73;;;;;;;13.02;85.36;100545.00;4960087;28;20108;-87
2021/07/30 02:18:47;;;;;;;14.65;9.32;;;;;;;13.06;85.48;100548.97;4978901;28;20043;-83
2021/07/30 02:21:13;;;;;;;12.73;9.00;;;;;;;13.09;85.25;100549.47;4981150;28;20134;-84
2021/07/30 02:23:38;;;;;;;14.88;9.13;;;;;;;13.16;84.84;100549.53;4979411;28;20142;-84
2021/07/30 02:26:04;;;;;;;14.98;9.75;;;;;;;13.20;84.52;100547.31;4979460;28;20047;-83
2021/07/30 02:28:29;;;;;;;15.63;9.30;;;;;;;13.27;84.36;100554.50;4977739;28;20050;-88
2021/07/30 02:30:54;;;;;;;15.95;8.93;;;;;;;13.34;83.84;100548.34;4976915;28;20504;-88
2021/07/30 02:33:20;;;;;;;17.40;9.43;;;;;;;13.39;83.47;100548.63;4979740;28;20765;-84
2021/07/30 02:35:46;;;;;;;15.07;8.65;;;;;;;13.47;83.07;100551.22;4978078;28;20088;-86
2021/07/30 02:38:11;;;;;;;19.45;8.98;;;;;;;13.54;82.62;100554.81;4979023;28;20157;-85
2021/07/30 02:40:36;;;;;;;16.30;8.10;;;;;;;13.54;82.55;100552.13;4979193;28;20682;-83
2021/07/30 02:43:02;;;;;;;14.13;8.65;;;;;;;13.58;82.35;100542.66;4976441;28;20047;-89
2021/07/30 02:45:27;;;;;;;14.65;8.55;;;;;;;13.57;82.19;100551.75;4980599;28;20526;-84
2021/07/30 02:47:53;;;;;;;14.35;8.52;;;;;;;13.53;82.59;100545.06;4978602;28;20054;-83
2021/07/30 02:50:18;;;;;;;13.77;8.50;;;;;;;13.49;82.73;100538.38;4978922;28;20051;-84
2021/07/30 02:52:43;;;;;;;14.73;8.93;;;;;;;13.49;82.52;100541.06;4980385;28;20062;-83
2021/07/30 02:55:09;;;;;;;17.25;8.13;;;;;;;13.38;83.20;100539.72;4977765;28;20046;-84
2021/07/30 02:57:34;;;;;;;14.70;9.43;;;;;;;13.27;83.79;100550.97;4978366;28;20058;-87
2021/07/30 03:00:00;;;;;;;14.25;9.23;;;;;;;13.19;84.40;100541.09;4979412;28;20503;-83
2021/07/30 03:02:25;;;;;;;15.60;8.90;;;;;;;13.15;84.61;100537.09;4979765;28;20479;-83
2021/07/30 03:04:50;;;;;;;16.63;9.15;;;;;;;13.09;85.01;100538.69;4974578;28;20113;-84
2021/07/30 03:07:16;;;;;;;15.60;9.35;;;;;;;13.06;85.15;100539.06;4979226;28;20073;-89
2021/07/30 03:09:41;;;;;;;17.58;9.32;;;;;;;13.07;85.18;100532.66;4977419;28;20106;-84
2021/07/30 03:12:07;;;;;;;16.02;8.85;;;;;;;13.03;85.46;100528.66;4957857;28;20046;-86
2021/07/30 03:14:32;;;;;;;14.20;8.75;;;;;;;13.02;85.25;100526.16;4984136;28;20117;-86
2021/07/30 03:16:58;;;;;;;14.60;9.85;;;;;;;12.91;85.80;100523.91;4982189;28;20054;-83
2021/07/30 03:19:23;;;;;;;16.63;9.35;;;;;;;12.85;86.40;100530.88;4980842;28;20043;-88
2021/07/30 03:21:49;;;;;;;16.75;9.25;;;;;;;12.79;86.39;100524.38;4978615;28;20093;-87
2021/07/30 03:24:14;;;;;;;14.23;9.77;;;;;;;12.75;87.00;100531.16;4979663;28;20070;-84
2021/07/30 03:26:39;;;;;;;14.98;9.25;;;;;;;12.84;86.44;100529.22;4981906;28;20051;-83
2021/07/30 03:29:05;;;;;;;17.88;9.75;;;;;;;12.83;86.30;100533.78;4982258;28;20082;-84
2021/07/30 03:31:30;;;;;;;14.88;9.65;;;;;;;12.85;86.41;100528.19;4981118;28;20054;-88
2021/07/30 03:33:56;;;;;;;19.08;10.15;;;;;;;12.86;86.37;100516.41;4959123;28;20046;-83
2021/07/30 03:36:21;;;;;;;18.63;10.30;;;;;;;12.82;86.52;100520.47;4982897;28;20050;-86
2021/07/30 03:38:47;;;;;;;16.95;10.10;;;;;;;12.79;86.71;100516.31;4981219;28;20054;-83
2021/07/30 03:41:12;;;;;;;16.17;9.55;;;;;;;12.78;86.48;100511.94;4964863;28;20093;-87
2021/07/30 03:43:38;;;;;;;16.92;10.38;;;;;;;12.79;86.75;100521.69;4981294;28;20059;-88
2021/07/30 03:46:03;;;;;;;13.95;9.27;;;;;;;12.79;86.57;100520.84;4980918;28;20056;-84
2021/07/30 03:48:29;;;;;;;19.85;9.80;;;;;;;12.80;86.72;100515.31;4982960;28;20563;-83
2021/07/30 03:50:54;;;;;;;15.70;9.27;;;;;;;12.87;86.59;100512.69;4980847;28;20401;-84
2021/07/30 03:53:19;;;;;;;13.82;9.73;;;;;;;12.91;86.50;100515.84;4981882;28;20049;-86
2021/07/30 03:55:45;;;;;;;16.42;9.25;;;;;;;12.93;86.24;100514.63;4981416;28;20080;-89
2021/07/30 03:58:10;;;;;;;15.00;9.88;;;;;;;12.91;86.58;100511.28;4980668;28;20062;-85
2021/07/30 04:00:38;;;;;;;14.38;9.45;;;;;;;12.91;86.58;100510.44;4981500;28;20058;-83
2021/07/30 04:03:03;;;;;;;16.70;9.63;;;;;;;12.96;86.44;100513.44;4981912;28;20046;-84
2021/07/30 04:05:28;;;;;;;17.80;10.38;;;;;;;12.97;86.18;100507.00;4978910;28;20062;-84
2021/07/30 04:07:54;;;;;;;14.93;9.65;;;;;;;12.95;86.34;100511.78;4980133;28;20532;-89
2021/07/30 04:10:19;;;;;;;18.27;9.25;;;;;;;12.98;86.37;100506.84;4978142;28;20085;-83
2021/07/30 04:12:44;;;;;;;16.48;8.65;;;;;;;12.99;86.39;100510.34;4979195;28;20150;-89
2021/07/30 04:15:10;;;;;;;15.38;8.65;;;;;;;12.98;86.45;100514.09;4981804;28;20397;-84
2021/07/30 04:17:35;;;;;;;16.52;9.85;;;;;;;13.04;86.25;100500.69;4979905;28;20057;-83
2021/07/30 04:20:01;;;;;;;14.55;9.55;;;;;;;13.06;86.59;100505.88;4981314;28;20054;-86
2021/07/30 04:22:26;;;;;;;15.07;8.45;;;;;;;13.12;86.15;100502.47;4979169;28;20194;-83
2021/07/30 04:24:52;;;;;;;14.13;9.05;;;;;;;13.17;86.30;100502.72;4978753;28;20860;-83
2021/07/30 04:27:17;;;;;;;15.05;8.45;;;;;;;13.25;85.69;100494.56;4982032;28;20051;-83
2021/07/30 04:29:43;;;;;;;17.63;9.05;;;;;;;13.34;85.66;100499.84;4980291;28;20144;-87
2021/07/30 04:32:09;;;;;;;14.00;8.50;;;;;;;13.39;85.79;100494.72;4955200;28;20085;-83
2021/07/30 04:34:39;;;;;;;14.10;7.90;;;;;;;13.44;84.95;100493.13;4961194;28;20138;-84
2021/07/30 04:37:05;;;;;;;13.40;8.10;;;;;;;13.55;84.57;100494.47;4979865;28;20047;-84
2021/07/30 04:39:30;;;;;;;17.08;8.25;;;;;;;13.58;84.55;100499.50;4981256;28;20513;-87
2021/07/30 04:41:56;;;;;;;13.25;8.10;;;;;;;13.59;84.93;100503.88;4980197;28;20086;-86
2021/07/30 04:44:22;;;;;;;12.75;8.02;;;;;;;13.66;84.58;100506.63;4980607;28;20046;-89
2021/07/30 04:46:47;;;;;;;17.60;8.80;;;;;;;13.71;84.51;100504.19;4979655;28;20050;-85
2021/07/30 04:49:13;;;;;;;12.65;8.23;;;;;;;13.73;84.83;100502.97;4980685;28;20046;-82
2021/07/30 04:51:38;;;;;;;14.13;7.95;;;;;;;13.77;84.42;100496.16;4963970;28;20420;-83
2021/07/30 04:54:03;;;;;;;16.80;7.85;;;;;;;13.77;84.80;100501.56;4973503;28;20061;-86
2021/07/30 04:56:29;;;;;;;14.13;8.55;;;;;;;13.81;85.05;100495.78;4974076;28;20050;-84
2021/07/30 04:58:54;;;;;;;16.20;8.23;;;;;;;13.83;84.68;100496.44;4975205;28;20464;-87
2021/07/30 05:01:19;;;;;;;14.07;8.43;;;;;;;13.90;84.53;100502.72;4981690;28;20050;-84
2021/07/30 05:03:45;;;;;;;17.38;8.85;;;;;;;13.92;84.60;100500.66;4960084;28;20052;-84
2021/07/30 05:06:15;;;;;;;16.95;7.72;;;;;;;13.92;85.06;100495.25;4981451;28;20085;-84
2021/07/30 05:08:41;;;;;;;13.70;7.50;;;;;;;13.90;85.36;100502.72;4974487;28;20042;-87
2021/07/30 05:11:08;;;;;;;16.15;7.97;;;;;;;13.96;85.06;100499.25;4979963;28;20398;-89
2021/07/30 05:13:34;;;;;;;14.23;8.07;;;;;;;14.02;84.79;100501.19;4968765;28;23369;-83
2021/07/30 05:16:08;;;;;;;19.38;9.02;;;;;;;14.09;84.51;100502.06;4977471;28;20046;-86
2021/07/30 05:18:33;;;;;;;14.77;8.02;;;;;;;14.08;85.09;100497.69;4955865;28;20047;-88
2021/07/30 05:20:59;;;;;;;14.38;8.52;;;;;;;14.11;84.73;100489.22;4980431;28;20054;-89
2021/07/30 05:23:24;;;;;;;18.48;9.00;;;;;;;14.18;84.53;100491.97;4977593;28;20474;-85
2021/07/30 05:25:54;;;;;;;13.70;7.60;;;;;;;14.17;84.90;100493.00;4977282;28;20169;-85
2021/07/30 05:28:19;;;;;;;13.32;8.07;;;;;;;14.25;84.99;100486.63;4980335;28;20050;-84
2021/07/30 05:30:45;;;;;;;15.50;8.57;;;;;;;14.31;84.67;100485.84;4976811;28;20046;-87
2021/07/30 05:33:10;;;;;;;16.23;8.75;;;;;;;14.33;85.19;100479.22;4982400;28;20504;-83
2021/07/30 05:35:35;;;;;;;17.98;8.50;;;;;;;14.36;84.63;100494.19;4974840;28;20522;-83
2021/07/30 05:38:01;;;;;;;16.05;8.60;;;;;;;14.35;85.07;100490.63;4980482;28;20204;-84
2021/07/30 05:40:26;;;;;;;15.45;8.38;;;;;;;14.45;85.12;100487.63;4978771;28;20161;-83
2021/07/30 05:42:52;;;;;;;13.90;8.50;;;;;;;14.53;85.06;100487.50;4980408;28;20417;-83
2021/07/30 05:45:17;;;;;;;15.15;8.30;;;;;;;14.56;84.86;100487.09;4980126;28;20416;-90
2021/07/30 05:47:42;;;;;;;13.63;7.93;;;;;;;14.59;84.60;100477.78;4979483;28;20046;-84
2021/07/30 05:50:08;;;;;;;16.27;8.05;;;;;;;14.58;85.62;100473.38;4978416;28;20072;-83
2021/07/30 05:52:34;;;;;;;16.17;8.07;;;;;;;14.66;84.75;100479.47;4980225;28;20461;-85
2021/07/30 05:55:00;;;;;;;16.10;8.60;;;;;;;14.70;85.40;100473.66;4961781;28;20405;-85
2021/07/30 05:57:25;;;;;;;12.88;8.23;;;;;;;14.77;84.33;100477.25;4978101;28;20497;-83
2021/07/30 05:59:50;;;;;;;16.25;8.10;;;;;;;14.84;84.47;100473.53;4978468;28;20157;-84
2021/07/30 06:02:16;;;;;;;12.80;8.07;;;;;;;14.91;84.39;100478.16;4978981;28;20085;-87
2021/07/30 06:04:42;;;;;;;16.45;8.30;;;;;;;14.98;84.67;100469.03;4980294;28;20125;-85
2021/07/30 06:07:08;;;;;;;15.95;8.20;;;;;;;15.05;84.39;100464.50;4979529;28;20100;-85
2021/07/30 06:09:33;;;;;;;18.42;8.40;;;;;;;15.12;83.46;100469.94;4976930;28;20072;-87
2021/07/30 06:11:59;;;;;;;12.93;7.30;;;;;;;15.24;83.55;100478.28;4974090;28;20555;-84
2021/07/30 06:14:24;;;;;;;14.13;8.30;;;;;;;15.32;82.79;100476.25;4979343;28;20110;-86
2021/07/30 06:16:50;;;;;;;11.70;7.60;;;;;;;15.40;82.59;100469.00;4976421;28;20060;-84
2021/07/30 06:19:15;;;;;;;13.88;7.15;;;;;;;15.49;83.02;100471.31;4979316;28;20077;-85
2021/07/30 06:21:40;;;;;;;16.98;7.57;;;;;;;15.60;81.52;100478.00;4978499;28;20067;-85
2021/07/30 06:24:06;;;;;;;16.35;7.47;;;;;;;15.71;81.33;100473.88;4979135;28;20055;-85
2021/07/30 06:26:31;;;;;;;13.75;7.65;;;;;;;15.78;81.19;100470.13;4983221;28;20061;-84
2021/07/30 06:28:57;;;;;;;10.65;6.93;;;;;;;15.90;81.64;100473.06;4984542;28;20058;-85
2021/07/30 06:31:22;;;;;;;11.32;7.15;;;;;;;15.94;80.38;100470.75;4982073;28;20504;-85
2021/07/30 06:33:48;;;;;;;13.50;7.75;;;;;;;16.02;79.91;100476.84;4984277;28;20406;-84
2021/07/30 06:36:17;;;;;;;13.27;7.57;;;;;;;16.07;79.68;100467.25;4982647;28;20108;-90
2021/07/30 06:38:43;;;;;;;14.45;7.13;;;;;;;16.10;79.74;100461.41;4982791;28;20048;-84
2021/07/30 06:41:11;;;;;;;14.85;7.55;;;;;;;16.19;79.74;100460.97;4982570;28;20051;-86
2021/07/30 06:43:36;;;;;;;16.73;7.23;;;;;;;16.28;78.69;100458.06;4984471;28;20513;-84
2021/07/30 06:46:02;;;;;;;13.13;7.15;;;;;;;16.32;78.51;100452.03;4983281;28;20050;-85
2021/07/30 06:48:27;;;;;;;12.32;6.97;;;;;;;16.39;78.38;100441.19;4986849;28;20042;-89
2021/07/30 06:50:54;;;;;;;12.05;6.90;;;;;;;16.45;77.84;100457.41;4986916;28;20046;-85
2021/07/30 06:53:19;;;;;;;13.90;6.85;;;;;;;16.54;77.84;100451.78;4986866;28;20639;-87
2021/07/30 06:55:44;;;;;;;11.38;6.63;;;;;;;16.63;77.75;100454.06;4987295;28;20117;-85
2021/07/30 06:58:10;;;;;;;10.68;6.93;;;;;;;16.72;77.72;100446.53;4985893;28;20524;-85
2021/07/30 07:00:35;;;;;;;12.32;6.82;;;;;;;16.77;77.69;100452.16;4962799;28;20081;-84
2021/07/30 07:03:03;;;;;;;15.60;7.63;;;;;;;16.82;77.49;100455.06;4981570;28;20085;-84
2021/07/30 07:05:28;;;;;;;13.15;7.00;;;;;;;16.88;77.94;100448.78;4954577;28;20238;-84
2021/07/30 07:07:53;;;;;;;16.42;7.45;;;;;;;16.99;76.99;100454.59;4986857;28;20053;-84
2021/07/30 07:10:19;;;;;;;12.23;6.95;;;;;;;17.08;77.76;100447.88;4966938;28;20034;-84
2021/07/30 07:12:44;;;;;;;12.05;6.10;;;;;;;17.19;77.53;100444.50;4982136;28;20054;-88
2021/07/30 07:15:10;;;;;;;9.05;5.78;;;;;;;17.29;76.21;100444.03;4985389;28;20524;-85
2021/07/30 07:17:36;;;;;;;11.90;6.50;;;;;;;17.35;75.72;100449.44;4988072;28;20122;-85
2021/07/30 07:20:01;;;;;;;12.27;6.03;;;;;;;17.43;75.64;100453.75;4987265;28;20125;-85
2021/07/30 07:22:28;;;;;;;13.40;6.32;;;;;;;17.49;75.75;100443.91;4984759;28;20398;-85
2021/07/30 07:24:55;;;;;;;10.48;5.10;;;;;;;17.49;75.04;100446.63;4982825;28;20054;-84
2021/07/30 07:27:20;;;;;;;12.30;5.57;;;;;;;17.55;75.82;100446.59;4986561;28;20544;-86
2021/07/30 07:29:45;;;;;;;14.65;6.10;;;;;;;17.63;74.97;100437.34;4977943;28;20046;-84
2021/07/30 07:32:11;;;;;;;15.18;6.35;;;;;;;17.72;74.49;100441.47;4976393;28;20086;-85
2021/07/30 07:34:36;;;;;;;9.98;5.72;;;;;;;17.76;74.75;100441.88;4985691;28;20051;-85
2021/07/30 07:37:02;;;;;;;13.43;5.25;;;;;;;17.79;73.75;100444.16;4983592;28;20035;-85
2021/07/30 07:39:27;;;;;;;13.95;6.25;;;;;;;17.88;74.35;100437.41;4978568;28;20046;-88
2021/07/30 07:41:52;;;;;;;11.00;5.82;;;;;;;17.94;74.02;100443.84;4984001;28;20079;-85
2021/07/30 07:44:18;;;;;;;13.23;6.00;;;;;;;18.02;73.83;100438.16;4956013;28;20049;-85
2021/07/30 07:46:45;;;;;;;11.68;5.07;;;;;;;18.02;73.06;100432.72;4987365;28;20055;-86
2021/07/30 07:49:10;;;;;;;10.20;5.78;;;;;;;18.06;73.91;100423.06;4979559;28;21930;-89
2021/07/30 07:51:36;;;;;;;10.43;5.45;;;;;;;18.15;74.09;100419.00;4980340;28;20055;-87
2021/07/30 07:54:03;;;;;;;11.45;5.50;;;;;;;18.28;73.60;100420.78;4990713;28;20053;-86
2021/07/30 07:56:29;;;;;;;13.95;5.70;;;;;;;18.35;73.40;100416.09;4985933;28;20069;-88
2021/07/30 07:58:54;;;;;;;12.75;5.32;;;;;;;18.43;73.33;100423.97;4979264;28;20489;-87
2021/07/30 08:01:19;;;;;;;9.50;4.80;;;;;;;18.53;72.74;100433.47;4982609;28;20050;-84
2021/07/30 08:03:46;;;;;;;12.88;5.53;;;;;;;18.57;73.07;100426.53;4984888;28;20473;-85
2021/07/30 08:06:18;;;;;;;13.85;5.50;;;;;;;18.55;72.40;100424.03;4986003;28;20084;-85
2021/07/30 08:08:44;;;;;;;15.48;4.97;;;;;;;18.60;71.95;100417.94;4984854;28;20039;-84
2021/07/30 08:11:11;;;;;;;10.93;5.20;;;;;;;18.64;72.18;100422.72;4984496;28;20444;-87
2021/07/30 08:13:36;;;;;;;12.68;5.10;;;;;;;18.61;71.94;100423.13;4983916;28;20050;-85
2021/07/30 08:16:02;;;;;;;10.90;5.20;;;;;;;18.62;72.19;100421.28;4986485;28;20073;-85
2021/07/30 08:18:27;;;;;;;9.50;5.07;;;;;;;18.68;72.37;100423.91;4987680;28;20511;-85
2021/07/30 08:20:53;;;;;;;12.45;5.22;;;;;;;18.76;71.66;100427.38;4985384;28;20050;-87
2021/07/30 08:23:18;;;;;;;10.88;5.18;;;;;;;18.84;71.18;100424.38;4987309;28;20117;-87
2021/07/30 08:25:43;;;;;;;12.43;5.20;;;;;;;18.95;71.63;100415.44;4980362;28;20051;-84
2021/07/30 08:28:09;;;;;;;11.25;4.72;;;;;;;19.08;70.97;100419.91;4986287;28;20053;-88
2021/07/30 08:30:34;;;;;;;11.57;5.35;;;;;;;19.12;70.79;100405.59;4983060;28;20061;-85
2021/07/30 08:33:00;;;;;;;14.80;5.45;;;;;;;19.16;71.45;100416.84;4984824;28;20050;-86
2021/07/30 08:35:26;;;;;;;11.90;5.13;;;;;;;19.25;70.84;100417.34;4984343;28;20038;-91
2021/07/30 08:37:51;;;;;;;11.20;5.03;;;;;;;19.29;69.83;100410.41;4986065;28;20185;-86
2021/07/30 08:40:17;;;;;;;10.43;4.72;;;;;;;19.38;69.92;100415.28;4986410;28;20062;-84
2021/07/30 08:42:42;;;;;;;13.73;5.15;;;;;;;19.52;69.61;100404.22;4986501;28;20089;-85
2021/07/30 08:45:08;;;;;;;7.25;4.40;;;;;;;19.51;68.55;100408.00;4981170;28;20069;-87
2021/07/30 08:47:34;;;;;;;10.05;4.25;;;;;;;19.51;69.12;100414.28;4974661;28;20094;-86
2021/07/30 08:50:00;;;;;;;10.45;4.68;;;;;;;19.52;67.37;100412.38;4971858;28;20418;-85
2021/07/30 08:52:34;;;;;;;14.35;4.20;;;;;;;19.46;67.88;100405.97;4971045;28;20046;-86
2021/07/30 08:54:59;;;;;;;8.20;4.45;;;;;;;19.55;68.23;100404.56;4980112;28;20187;-84
2021/07/30 08:57:24;;;;;;;10.65;5.00;;;;;;;19.72;68.82;100412.09;4975877;28;20055;-90
2021/07/30 08:59:50;;;;;;;9.20;4.70;;;;;;;19.86;68.66;100405.38;4976208;28;20049;-84
2021/07/30 09:02:15;;;;;;;9.93;5.00;;;;;;;19.91;67.73;100404.66;4971001;28;20383;-85
2021/07/30 09:04:40;;;;;;;11.38;4.97;;;;;;;20.08;69.45;100391.16;4967478;28;20055;-86
2021/07/30 09:07:06;;;;;;;10.13;4.88;;;;;;;20.29;68.30;100388.69;4978755;28;20188;-84
2021/07/30 09:09:33;;;;;;;9.43;4.78;;;;;;;20.43;67.31;100383.81;4977106;28;20562;-89
2021/07/30 09:12:00;;;;;;;7.93;4.18;;;;;;;20.46;65.35;100390.69;4979075;28;20057;-85
2021/07/30 09:14:39;;;;;;;7.93;3.88;;;;;;;20.42;64.20;100390.31;4982362;28;20490;-85
2021/07/30 09:17:05;;;;;;;10.52;4.15;;;;;;;20.40;64.96;100381.56;4980288;28;20128;-85
2021/07/30 09:19:31;;;;;;;8.68;4.32;;;;;;;20.56;65.45;100377.31;4978956;28;20598;-91
2021/07/30 09:22:08;;;;;;;7.63;3.00;;;;;;;20.72;63.90;100375.75;4979280;28;20050;-85
2021/07/30 09:24:35;;;;;;;7.75;3.10;;;;;;;20.83;63.16;100377.59;4985114;28;20122;-84
2021/07/30 09:27:01;;;;;;;7.18;3.42;;;;;;;20.78;61.56;100382.13;4984065;28;20046;-85
2021/07/30 09:29:29;;;;;;;9.25;3.42;;;;;;;20.67;62.15;100387.34;4983107;28;20130;-86
2021/07/30 09:32:14;;;;;;;7.10;3.10;;;;;;;20.57;61.71;100375.41;4982465;28;20130;-85
2021/07/30 09:34:43;;;;;;;7.18;3.25;;;;;;;20.66;62.22;100382.97;4985645;28;20050;-85
2021/07/30 09:37:09;;;;;;;5.65;3.00;;;;;;;20.78;62.47;100374.78;4965639;28;20074;-85
2021/07/30 09:39:38;;;;;;;6.93;3.38;;;;;;;20.85;63.08;100367.25;4982571;28;20058;-84
2021/07/30 09:42:10;;;;;;;7.50;3.30;;;;;;;20.94;62.88;100364.97;4985214;28;20481;-85
2021/07/30 09:44:42;;;;;;;8.75;3.15;;;;;;;21.12;62.68;100369.44;4985329;28;20086;-85
2021/07/30 09:47:10;;;;;;;6.03;2.90;;;;;;;21.02;61.51;100358.31;4981943;28;20054;-85
2021/07/30 09:49:37;;;;;;;9.20;3.33;;;;;;;21.10;62.24;100355.19;4982586;28;20508;-85
2021/07/30 09:52:03;;;;;;;7.22;2.70;;;;;;;21.34;61.43;100353.16;4984346;28;20121;-85
2021/07/30 09:54:33;;;;;;;6.35;2.70;;;;;;;21.43;60.43;100364.53;4967293;28;20053;-85
2021/07/30 09:57:02;;;;;;;7.97;2.75;;;;;;;21.52;60.22;100357.59;4984329;28;20066;-84
2021/07/30 09:59:31;;;;;;;5.53;2.70;;;;;;;21.62;61.42;100352.31;4983193;28;20386;-87
2021/07/30 10:01:56;;;;;;;6.70;2.88;;;;;;;21.71;58.01;100350.81;4982791;28;20045;-87
2021/07/30 10:04:24;;;;;;;6.00;2.75;;;;;;;21.70;59.66;100338.25;4981738;28;20050;-85
2021/07/30 10:06:50;;;;;;;5.68;2.05;;;;;;;21.88;58.52;100339.91;4983691;28;20493;-86
2021/07/30 10:09:18;;;;;;;5.32;2.33;;;;;;;21.99;57.43;100341.69;4977413;28;20050;-86
2021/07/30 10:11:44;;;;;;;5.00;2.33;;;;;;;22.03;56.93;100329.19;4981748;28;20121;-84
2021/07/30 10:14:11;;;;;;;5.25;2.10;;;;;;;22.08;55.33;100325.72;4976980;28;20105;-84
2021/07/30 10:16:51;;;;;;;7.18;2.25;;;;;;;22.01;56.98;100325.03;4972114;28;20050;-85
2021/07/30 10:19:17;;;;;;;4.85;2.00;;;;;;;22.20;56.47;100312.78;4973960;28;20054;-86
2021/07/30 10:21:43;;;;;;;4.95;2.35;;;;;;;22.06;56.37;100314.19;4974923;28;20039;-86
2021/07/30 10:24:10;;;;;;;4.13;2.20;;;;;;;22.12;55.94;100318.66;4981549;28;20092;-86
2021/07/30 10:26:35;;;;;;;8.35;2.60;;;;;;;22.15;54.94;100312.69;4981565;28;20132;-87
2021/07/30 10:29:00;;;;;;;7.10;2.40;;;;;;;22.28;55.24;100306.06;4979925;28;20117;-84
2021/07/30 10:31:49;;;;;;;8.35;2.58;;;;;;;22.48;56.81;100311.78;4961092;28;20117;-89
2021/07/30 10:34:34;;;;;;;4.38;2.38;;;;;;;22.63;55.26;100302.13;4979686;28;20058;-85
2021/07/30 10:37:00;;;;;;;4.88;2.22;;;;;;;22.65;52.04;100291.75;4976709;28;20504;-85
2021/07/30 10:39:25;;;;;;;6.45;2.85;;;;;;;22.65;53.61;100294.50;4981385;28;20138;-87
2021/07/30 10:42:12;;;;;;;5.45;2.35;;;;;;;22.65;53.81;100295.31;4979688;28;21367;-85
2021/07/30 10:45:15;;;;;;;4.82;2.40;;;;;;;22.79;53.64;100279.31;4965482;28;20105;-84
2021/07/30 10:47:40;;;;;;;6.28;2.80;;;;;;;22.73;53.83;100286.66;4964395;28;20046;-86
2021/07/30 10:50:45;;;;;;;5.90;2.55;;;;;;;22.75;53.73;100279.00;4981882;28;20050;-86
2021/07/30 10:55:58;;;;;;;6.05;2.63;;;;;;;22.83;53.74;100276.91;4973134;28;20224;-85
2021/07/30 10:58:45;;;;;;;4.78;2.65;;;;;;;22.91;53.54;100276.44;4981764;28;20054;-86
2021/07/30 11:01:12;;;;;;;3.85;1.90;;;;;;;23.05;52.86;100264.03;4979434;28;20050;-85
2021/07/30 11:03:53;;;;;;;5.80;2.53;;;;;;;23.03;52.94;100274.38;4959021;28;20051;-88
2021/07/30 11:06:21;;;;;;;4.63;2.30;;;;;;;22.88;52.83;100272.31;4980087;28;20714;-86
2021/07/30 11:08:59;;;;;;;4.55;2.15;;;;;;;22.85;53.35;100270.09;4976148;28;20043;-85
2021/07/30 11:11:49;;;;;;;4.40;2.38;;;;;;;22.69;53.41;100266.34;4954259;28;20046;-86
2021/07/30 11:14:18;;;;;;;5.05;2.47;;;;;;;22.83;53.87;100274.16;4978840;28;20547;-85
2021/07/30 11:16:51;;;;;;;5.07;2.60;;;;;;;22.84;53.74;100271.16;4980999;28;20050;-84
2021/07/30 11:19:19;;;;;;;4.72;2.50;;;;;;;22.83;54.90;100258.56;4972648;28;20663;-86
2021/07/30 11:21:45;;;;;;;3.75;2.38;;;;;;;23.05;53.86;100269.50;4971580;28;20107;-85
2021/07/30 11:24:11;;;;;;;3.90;2.50;;;;;;;23.18;54.08;100274.53;4974783;28;20046;-88